createdAt,value
2023-04-03T00:00:41.392Z,-3.27
2023-04-03T00:03:09.423Z,-3.30
2023-04-03T00:05:37.041Z,-3.35
2023-04-03T00:08:08.973Z,-3.30
2023-04-03T00:10:37.045Z,-3.34
2023-04-03T00:13:07.035Z,-3.35
2023-04-03T00:15:34.766Z,-3.38
2023-04-03T00:18:02.519Z,-3.37
2023-04-03T00:20:30.288Z,-3.37
2023-04-03T00:22:58.005Z,-3.41
2023-04-03T00:25:25.779Z,-3.46
2023-04-03T00:27:53.595Z,-3.48
2023-04-03T00:30:23.757Z,-3.49
2023-04-03T00:32:52.125Z,-3.48
2023-04-03T00:35:20.663Z,-3.47
2023-04-03T00:37:48.773Z,-3.46
2023-04-03T00:40:17.268Z,-3.53
2023-04-03T00:42:45.768Z,-3.60
2023-04-03T00:45:27.172Z,-3.66
2023-04-03T00:47:55.194Z,-3.72
2023-04-03T00:50:22.908Z,-3.75
2023-04-03T00:52:51.122Z,-3.74
2023-04-03T00:55:18.973Z,-3.79
2023-04-03T00:57:48.071Z,-3.79
2023-04-03T01:00:18.763Z,-3.80
2023-04-03T01:02:47.890Z,-3.80
2023-04-03T01:05:18.477Z,-3.82
2023-04-03T01:07:46.564Z,-3.83
2023-04-03T01:10:16.962Z,-3.82
2023-04-03T01:12:46.709Z,-3.83
2023-04-03T01:15:16.118Z,-3.88
2023-04-03T01:17:44.976Z,-3.87
2023-04-03T01:20:34.058Z,-3.96
2023-04-03T01:23:08.675Z,-4.06
2023-04-03T01:25:37.401Z,-4.06
2023-04-03T01:28:05.641Z,-4.05
2023-04-03T01:30:35.593Z,-4.06
2023-04-03T01:33:05.005Z,-4.16
2023-04-03T01:35:32.709Z,-4.20
2023-04-03T01:38:00.372Z,-4.23
2023-04-03T01:40:28.292Z,-4.22
2023-04-03T01:42:55.958Z,-4.22
2023-04-03T01:45:23.714Z,-4.20
2023-04-03T01:47:51.986Z,-4.14
2023-04-03T01:50:21.135Z,-4.18
2023-04-03T01:52:48.804Z,-4.16
2023-04-03T01:55:16.737Z,-4.18
2023-04-03T01:57:44.487Z,-4.27
2023-04-03T02:00:13.056Z,-4.31
2023-04-03T02:02:40.735Z,-4.37
2023-04-03T02:05:08.956Z,-4.44
2023-04-03T02:07:38.081Z,-4.37
2023-04-03T02:10:06.053Z,-4.36
2023-04-03T02:12:33.740Z,-4.34
2023-04-03T02:15:01.907Z,-4.42
2023-04-03T02:17:29.670Z,-4.44
2023-04-03T02:20:00.195Z,-4.48
2023-04-03T02:22:30.756Z,-4.48
2023-04-03T02:24:59.805Z,-4.54
2023-04-03T02:27:27.526Z,-4.59
2023-04-03T02:29:55.298Z,-4.66
2023-04-03T02:32:23.110Z,-4.73
2023-04-03T02:34:50.856Z,-4.69
2023-04-03T02:37:18.771Z,-4.73
2023-04-03T02:39:46.440Z,-4.72
2023-04-03T02:42:15.800Z,-4.75
2023-04-03T02:44:43.520Z,-4.61
2023-04-03T02:47:11.192Z,-4.57
2023-04-03T02:49:38.901Z,-4.52
2023-04-03T02:52:06.756Z,-4.49
2023-04-03T02:54:34.437Z,-4.47
2023-04-03T02:57:02.280Z,-4.43
2023-04-03T02:59:31.562Z,-4.39
2023-04-03T03:01:59.254Z,-4.45
2023-04-03T03:04:26.967Z,-4.51
2023-04-03T03:06:54.654Z,-4.59
2023-04-03T03:09:22.347Z,-4.65
2023-04-03T03:11:50.009Z,-4.56
2023-04-03T03:14:17.752Z,-4.51
2023-04-03T03:16:46.737Z,-4.52
2023-04-03T03:19:14.427Z,-4.49
2023-04-03T03:21:42.159Z,-4.49
2023-04-03T03:24:09.996Z,-4.50
2023-04-03T03:26:37.932Z,-4.52
2023-04-03T03:29:05.628Z,-4.53
2023-04-03T03:31:33.357Z,-4.53
2023-04-03T03:34:02.581Z,-4.52
2023-04-03T03:36:30.269Z,-4.48
2023-04-03T03:38:57.959Z,-4.43
2023-04-03T03:41:25.559Z,-4.50
2023-04-03T03:43:53.306Z,-4.59
2023-04-03T03:46:21.116Z,-4.65
2023-04-03T03:48:48.762Z,-4.63
2023-04-03T03:51:17.995Z,-4.67
2023-04-03T03:53:45.687Z,-4.72
2023-04-03T03:56:13.361Z,-4.73
2023-04-03T03:58:41.023Z,-4.67
2023-04-03T04:01:09.121Z,-4.80
2023-04-03T04:03:37.061Z,-4.84
2023-04-03T04:06:04.976Z,-4.82
2023-04-03T04:08:34.280Z,-4.87
2023-04-03T04:11:01.895Z,-4.89
2023-04-03T04:13:29.558Z,-4.86
2023-04-03T04:15:57.229Z,-4.86
2023-04-03T04:18:25.104Z,-4.89
2023-04-03T04:20:52.919Z,-4.89
2023-04-03T04:23:20.976Z,-4.90
2023-04-03T04:25:50.334Z,-4.89
2023-04-03T04:28:18.190Z,-4.87
2023-04-03T04:30:46.815Z,-4.87
2023-04-03T04:33:15.189Z,-4.90
2023-04-03T04:35:44.352Z,-4.84
2023-04-03T04:38:12.100Z,-4.80
2023-04-03T04:40:39.773Z,-4.75
2023-04-03T04:43:08.841Z,-4.76
2023-04-03T04:45:36.737Z,-4.79
2023-04-03T04:48:04.685Z,-4.79
2023-04-03T04:50:32.350Z,-4.77
2023-04-03T04:53:00.032Z,-4.78
2023-04-03T04:55:27.720Z,-4.71
2023-04-03T04:57:55.656Z,-4.68
2023-04-03T05:00:24.894Z,-4.60
2023-04-03T05:02:52.609Z,-4.54
2023-04-03T05:05:20.319Z,-4.48
2023-04-03T05:07:48.048Z,-4.46
2023-04-03T05:10:15.693Z,-4.38
2023-04-03T05:12:43.381Z,-4.38
2023-04-03T05:15:11.477Z,-4.38
2023-04-03T05:17:40.552Z,-4.32
2023-04-03T05:20:09.621Z,-4.29
2023-04-03T05:22:37.341Z,-4.26
2023-04-03T05:25:05.254Z,-4.23
2023-04-03T05:27:32.952Z,-4.19
2023-04-03T05:30:00.805Z,-4.13
2023-04-03T05:32:29.117Z,-4.08
2023-04-03T05:35:00.092Z,-4.05
2023-04-03T05:37:28.839Z,-4.00
2023-04-03T05:39:56.846Z,-4.00
2023-04-03T05:42:24.460Z,-3.97
2023-04-03T05:44:52.103Z,-3.93
2023-04-03T05:47:19.826Z,-3.88
2023-04-03T05:49:47.617Z,-3.80
2023-04-03T05:52:20.585Z,-3.77
2023-04-03T05:54:49.301Z,-3.74
2023-04-03T05:57:17.476Z,-3.71
2023-04-03T05:59:45.587Z,-3.66
2023-04-03T06:02:14.680Z,-3.64
2023-04-03T06:04:42.496Z,-3.59
2023-04-03T06:07:13.801Z,-3.56
2023-04-03T06:09:42.790Z,-3.53
2023-04-03T06:12:10.626Z,-3.47
2023-04-03T06:14:38.330Z,-3.40
2023-04-03T06:17:07.135Z,-3.36
2023-04-03T06:19:34.917Z,-3.31
2023-04-03T06:22:02.653Z,-3.18
2023-04-03T06:24:30.410Z,-2.24
2023-04-03T06:26:59.825Z,-1.57
2023-04-03T06:29:27.624Z,-2.40
2023-04-03T06:31:55.468Z,-2.80
2023-04-03T06:34:23.282Z,-2.87
2023-04-03T06:36:51.685Z,-2.79
2023-04-03T06:39:21.974Z,-2.68
2023-04-03T06:41:49.723Z,-2.46
2023-04-03T06:44:18.789Z,-1.60
2023-04-03T06:46:47.581Z,-1.27
2023-04-03T06:49:16.101Z,-1.22
2023-04-03T06:51:43.794Z,-1.16
2023-04-03T06:54:11.532Z,-1.15
2023-04-03T06:56:39.152Z,-1.21
2023-04-03T06:59:06.869Z,-1.24
2023-04-03T07:01:36.247Z,-1.35
2023-04-03T07:04:04.088Z,-1.31
2023-04-03T07:06:32.856Z,-1.46
2023-04-03T07:09:00.515Z,-1.52
2023-04-03T07:11:28.293Z,-1.50
2023-04-03T07:13:56.084Z,-1.48
2023-04-03T07:16:23.782Z,-1.47
2023-04-03T07:18:52.790Z,-1.53
2023-04-03T07:21:20.510Z,-1.43
2023-04-03T07:26:16.951Z,-1.34
2023-04-03T07:28:45.380Z,-1.29
2023-04-03T07:31:14.556Z,-1.16
2023-04-03T07:33:43.039Z,-1.09
2023-04-03T07:36:12.441Z,-1.09
2023-04-03T07:38:40.120Z,-1.09
2023-04-03T07:41:07.973Z,-1.01
2023-04-03T07:43:36.137Z,-0.83
2023-04-03T07:46:06.909Z,-0.79
2023-04-03T07:48:36.054Z,-0.67
2023-04-03T07:51:04.293Z,-0.54
2023-04-03T07:53:33.878Z,-0.41
2023-04-03T07:56:02.594Z,-0.38
2023-04-03T07:58:30.673Z,-0.32
2023-04-03T08:00:58.346Z,-0.25
2023-04-03T08:03:26.119Z,-0.18
2023-04-03T08:05:54.559Z,-0.07
2023-04-03T08:08:23.415Z,-0.08
2023-04-03T08:10:53.504Z,-0.01
2023-04-03T08:13:21.460Z,-0.01
2023-04-03T08:15:49.206Z,0.06
2023-04-03T08:18:17.266Z,0.16
2023-04-03T08:20:45.710Z,0.10
2023-04-03T08:23:13.623Z,0.19
2023-04-03T08:25:41.906Z,0.41
2023-04-03T08:28:11.823Z,0.44
2023-04-03T08:30:41.477Z,0.45
2023-04-03T08:33:09.593Z,0.55
2023-04-03T08:35:40.577Z,0.59
2023-04-03T08:38:08.617Z,0.63
2023-04-03T08:40:36.518Z,0.69
2023-04-03T08:43:18.853Z,0.75
2023-04-03T08:45:48.126Z,0.82
2023-04-03T08:48:17.713Z,0.85
2023-04-03T08:50:47.214Z,0.95
2023-04-03T08:53:16.887Z,1.01
2023-04-03T08:55:45.845Z,1.04
2023-04-03T08:58:17.418Z,1.03
2023-04-03T09:00:47.529Z,1.06
2023-04-03T09:03:16.170Z,1.14
2023-04-03T09:05:46.344Z,1.09
2023-04-03T09:08:18.569Z,1.22
2023-04-03T09:10:46.265Z,1.26
2023-04-03T09:13:23.454Z,1.32
2023-04-03T09:15:51.152Z,1.35
2023-04-03T09:18:22.103Z,1.39
2023-04-03T09:20:56.050Z,1.36
2023-04-03T09:23:27.402Z,1.43
2023-04-03T09:25:58.910Z,1.49
2023-04-03T09:28:29.327Z,1.48
2023-04-03T09:30:58.609Z,1.53
2023-04-03T09:33:26.591Z,1.59
2023-04-03T09:35:56.293Z,1.75
2023-04-03T09:38:25.120Z,1.83
2023-04-03T09:40:53.751Z,1.72
2023-04-03T09:43:24.166Z,1.72
2023-04-03T09:45:53.886Z,1.79
2023-04-03T09:48:22.477Z,1.84
2023-04-03T09:50:59.425Z,1.77
2023-04-03T09:53:37.855Z,1.89
2023-04-03T09:56:06.684Z,1.94
2023-04-03T09:58:49.106Z,1.93
2023-04-03T10:01:28.530Z,1.96
2023-04-03T10:04:12.450Z,2.04
2023-04-03T10:06:44.430Z,2.16
2023-04-03T10:09:20.703Z,2.15
2023-04-03T10:12:02.180Z,2.25
2023-04-03T10:14:30.360Z,2.26
2023-04-03T10:17:04.417Z,2.31
2023-04-03T10:19:38.961Z,2.33
2023-04-03T10:22:11.656Z,2.32
2023-04-03T10:24:46.547Z,2.43
2023-04-03T10:27:19.232Z,2.44
2023-04-03T10:29:51.694Z,2.55
2023-04-03T10:32:32.330Z,2.53
2023-04-03T10:35:05.531Z,2.50
2023-04-03T10:37:38.653Z,2.50
2023-04-03T10:40:13.487Z,2.69
2023-04-03T10:42:48.297Z,2.66
2023-04-03T10:45:23.863Z,2.67
2023-04-03T10:47:59.027Z,2.69
2023-04-03T10:50:36.034Z,2.69
2023-04-03T10:53:08.964Z,2.68
2023-04-03T10:55:39.028Z,2.73
2023-04-03T10:58:07.395Z,2.85
2023-04-03T11:00:38.941Z,2.87
2023-04-03T11:03:11.898Z,2.97
2023-04-03T11:05:43.225Z,3.04
2023-04-03T11:08:15.631Z,3.13
2023-04-03T11:10:44.067Z,3.17
2023-04-03T11:13:14.562Z,3.16
2023-04-03T11:15:43.284Z,3.30
2023-04-03T11:18:15.747Z,3.26
2023-04-03T11:20:45.173Z,3.20
2023-04-03T11:23:19.034Z,3.18
2023-04-03T11:25:49.592Z,3.24
2023-04-03T11:28:17.341Z,3.22
2023-04-03T11:30:48.305Z,3.31
2023-04-03T11:33:27.566Z,3.26
2023-04-03T11:35:57.797Z,3.36
2023-04-03T11:38:27.617Z,3.41
2023-04-03T11:40:56.277Z,3.44
2023-04-03T11:43:26.566Z,3.54
2023-04-03T11:45:59.944Z,3.54
2023-04-03T11:48:49.909Z,3.52
2023-04-03T11:51:47.900Z,3.52
2023-04-03T11:54:38.561Z,3.58
2023-04-03T11:57:40.348Z,3.59
2023-04-03T12:00:27.124Z,3.61
2023-04-03T12:02:55.160Z,3.63
2023-04-03T12:05:31.522Z,3.80
2023-04-03T12:08:14.049Z,3.86
2023-04-03T12:10:41.775Z,3.87
2023-04-03T12:13:17.722Z,3.88
2023-04-03T12:15:55.815Z,4.01
2023-04-03T12:18:53.826Z,3.97
2023-04-03T12:21:23.737Z,3.98
2023-04-03T12:24:12.179Z,3.91
2023-04-03T12:26:48.489Z,3.91
2023-04-03T12:29:19.608Z,3.92
2023-04-03T12:31:52.691Z,4.03
2023-04-03T12:34:40.125Z,3.92
2023-04-03T12:37:14.668Z,3.97
2023-04-03T12:39:55.038Z,4.05
2023-04-03T12:42:40.748Z,4.08
2023-04-03T12:45:15.315Z,4.01
2023-04-03T12:47:44.416Z,4.06
2023-04-03T12:50:22.342Z,4.06
2023-04-03T12:52:53.467Z,4.06
2023-04-03T12:55:22.745Z,4.09
2023-04-03T12:57:50.749Z,4.11
2023-04-03T13:00:22.967Z,4.09
2023-04-03T13:02:51.029Z,4.19
2023-04-03T13:05:20.291Z,4.20
2023-04-03T13:07:52.140Z,4.22
2023-04-03T13:10:20.899Z,4.18
2023-04-03T13:12:50.533Z,4.18
2023-04-03T13:15:19.971Z,4.17
2023-04-03T13:17:49.563Z,4.17
2023-04-03T13:20:19.983Z,4.20
2023-04-03T13:22:52.781Z,4.16
2023-04-03T13:25:22.472Z,4.10
2023-04-03T13:27:52.206Z,4.15
2023-04-03T13:30:31.914Z,4.23
2023-04-03T13:33:00.748Z,4.25
2023-04-03T13:35:29.919Z,4.24
2023-04-03T13:38:00.271Z,4.25
2023-04-03T13:40:30.160Z,4.29
2023-04-03T13:43:01.745Z,4.29
2023-04-03T13:45:30.536Z,4.30
2023-04-03T13:48:20.240Z,4.30
2023-04-03T13:51:01.453Z,4.34
2023-04-03T13:53:31.563Z,4.36
2023-04-03T13:56:07.326Z,4.34
2023-04-03T13:58:36.356Z,4.26
2023-04-03T14:01:09.723Z,4.27
2023-04-03T14:03:41.877Z,4.30
2023-04-03T14:06:12.345Z,4.29
2023-04-03T14:08:43.430Z,4.31
2023-04-03T14:11:15.327Z,4.27
2023-04-03T14:13:43.305Z,4.28
2023-04-03T14:16:16.164Z,4.32
2023-04-03T14:18:44.342Z,4.36
2023-04-03T14:21:13.387Z,4.31
2023-04-03T14:23:42.827Z,4.35
2023-04-03T14:26:12.750Z,4.33
2023-04-03T14:28:43.201Z,4.37
2023-04-03T14:31:12.047Z,4.38
2023-04-03T14:33:39.826Z,4.33
2023-04-03T14:36:13.652Z,4.33
2023-04-03T14:38:43.756Z,4.29
2023-04-03T14:41:16.896Z,4.32
2023-04-03T14:43:45.109Z,4.34
2023-04-03T14:46:14.835Z,4.27
2023-04-03T14:48:42.795Z,4.28
2023-04-03T14:51:11.847Z,4.30
2023-04-03T14:53:40.061Z,4.28
2023-04-03T14:56:14.387Z,4.27
2023-04-03T14:58:42.085Z,4.26
2023-04-03T15:01:11.685Z,4.26
2023-04-03T15:03:40.028Z,4.26
2023-04-03T15:06:07.901Z,4.24
2023-04-03T15:08:35.514Z,4.23
2023-04-03T15:11:03.133Z,4.26
2023-04-03T15:13:32.170Z,4.22
2023-04-03T15:15:59.867Z,4.19
2023-04-03T15:18:30.869Z,4.19
2023-04-03T15:20:58.828Z,4.23
2023-04-03T15:23:27.485Z,4.18
2023-04-03T15:25:55.731Z,4.14
2023-04-03T15:28:25.670Z,4.16
2023-04-03T15:30:55.116Z,4.17
2023-04-03T15:33:22.864Z,4.09
2023-04-03T15:35:50.730Z,4.09
2023-04-03T15:38:18.521Z,4.08
2023-04-03T15:40:48.017Z,4.10
2023-04-03T15:43:16.651Z,4.10
2023-04-03T15:45:44.883Z,4.06
2023-04-03T15:48:14.443Z,4.03
2023-04-03T15:50:42.310Z,4.04
2023-04-03T15:53:10.250Z,4.04
2023-04-03T15:55:39.214Z,3.98
2023-04-03T15:58:07.285Z,4.00
2023-04-03T16:00:35.203Z,3.98
2023-04-03T16:03:06.385Z,3.95
2023-04-03T16:05:36.936Z,3.91
2023-04-03T16:08:04.787Z,3.89
2023-04-03T16:10:32.622Z,3.91
2023-04-03T16:13:00.606Z,3.88
2023-04-03T16:15:28.522Z,3.87
2023-04-03T16:17:56.576Z,3.87
2023-04-03T16:20:24.404Z,3.85
2023-04-03T16:22:53.590Z,3.79
2023-04-03T16:25:21.777Z,3.73
2023-04-03T16:27:49.408Z,3.71
2023-04-03T16:30:17.043Z,3.71
2023-04-03T16:32:44.845Z,3.69
2023-04-03T16:35:15.267Z,3.63
2023-04-03T16:37:42.928Z,3.53
2023-04-03T16:40:13.099Z,3.43
2023-04-03T16:42:40.979Z,3.38
2023-04-03T16:45:09.166Z,3.36
2023-04-03T16:47:36.897Z,3.31
2023-04-03T16:50:05.071Z,3.26
2023-04-03T16:52:32.855Z,3.22
2023-04-03T16:55:00.535Z,3.14
2023-04-03T16:57:29.612Z,3.07
2023-04-03T16:59:57.349Z,3.02
2023-04-03T17:02:26.711Z,2.98
2023-04-03T17:04:54.835Z,2.91
2023-04-03T17:07:22.976Z,2.86
2023-04-03T17:09:50.750Z,2.79
2023-04-03T17:12:18.517Z,2.77
2023-04-03T17:14:47.828Z,2.71
2023-04-03T17:17:15.919Z,2.64
2023-04-03T17:19:44.491Z,2.52
2023-04-03T17:22:12.664Z,2.46
2023-04-03T17:24:40.578Z,2.42
2023-04-03T17:27:08.178Z,2.30
2023-04-03T17:29:35.931Z,2.23
2023-04-03T17:32:05.138Z,2.15
2023-04-03T17:34:33.694Z,2.13
2023-04-03T17:37:01.617Z,2.03
2023-04-03T17:39:29.326Z,1.92
2023-04-03T17:41:57.002Z,1.86
2023-04-03T17:44:24.600Z,1.77
2023-04-03T17:46:52.292Z,1.67
2023-04-03T17:49:22.495Z,1.62
2023-04-03T17:51:50.440Z,1.52
2023-04-03T17:54:18.158Z,1.45
2023-04-03T17:56:48.227Z,1.41
2023-04-03T17:59:16.644Z,1.36
2023-04-03T18:01:45.248Z,1.33
2023-04-03T18:04:13.249Z,1.25
2023-04-03T18:06:43.842Z,1.18
2023-04-03T18:09:14.704Z,1.11
2023-04-03T18:11:43.122Z,1.05
2023-04-03T18:14:11.346Z,1.01
2023-04-03T18:16:39.157Z,0.98
2023-04-03T18:19:21.820Z,0.93
2023-04-03T18:21:52.341Z,0.85
2023-04-03T18:24:21.167Z,0.81
2023-04-03T18:26:50.106Z,0.77
2023-04-03T18:29:18.022Z,0.69
2023-04-03T18:31:47.483Z,0.61
2023-04-03T18:34:15.253Z,0.58
2023-04-03T18:36:42.948Z,0.56
2023-04-03T18:39:12.065Z,0.53
2023-04-03T18:41:40.185Z,0.48
2023-04-03T18:44:09.637Z,0.44
2023-04-03T18:49:11.430Z,0.22
2023-04-03T18:51:40.172Z,0.18
2023-04-03T18:54:09.978Z,0.14
2023-04-03T18:56:39.675Z,0.12
2023-04-03T18:59:07.436Z,0.10
2023-04-03T19:01:35.427Z,0.00
2023-04-03T19:04:03.365Z,-0.06
2023-04-03T19:06:31.094Z,-0.10
2023-04-03T19:09:00.490Z,-0.17
2023-04-03T19:11:30.213Z,-0.21
2023-04-03T19:14:14.483Z,-0.23
2023-04-03T19:16:43.405Z,-0.27
2023-04-03T19:19:11.235Z,-0.30
2023-04-03T19:21:41.409Z,-0.40
2023-04-03T19:24:09.834Z,-0.48
2023-04-03T19:26:37.620Z,-0.50
2023-04-03T19:29:06.633Z,-0.53
2023-04-03T19:31:35.131Z,-0.56
2023-04-03T19:34:04.013Z,-0.64
2023-04-03T19:36:31.997Z,-0.70
2023-04-03T19:38:59.644Z,-0.75
2023-04-03T19:41:29.344Z,-0.77
2023-04-03T19:43:57.365Z,-0.82
2023-04-03T19:46:27.106Z,-0.85
2023-04-03T19:48:55.023Z,-0.87
2023-04-03T19:51:22.817Z,-0.90
2023-04-03T19:53:50.490Z,-0.93
2023-04-03T19:56:18.263Z,-0.99
2023-04-03T19:58:46.061Z,-1.05
2023-04-03T20:01:13.827Z,-1.06
2023-04-03T20:03:42.981Z,-1.13
2023-04-03T20:06:10.634Z,-1.16
2023-04-03T20:08:39.480Z,-1.19
2023-04-03T20:11:07.151Z,-1.21
2023-04-03T20:13:34.794Z,-1.25
2023-04-03T20:16:03.254Z,-1.24
2023-04-03T20:18:31.315Z,-1.26
2023-04-03T20:21:01.660Z,-1.34
2023-04-03T20:23:29.726Z,-1.35
2023-04-03T20:26:09.173Z,-1.38
2023-04-03T20:28:39.002Z,-1.39
2023-04-03T20:31:07.982Z,-1.40
2023-04-03T20:33:37.208Z,-1.44
2023-04-03T20:36:06.544Z,-1.47
2023-04-03T20:38:34.230Z,-1.50
2023-04-03T20:41:01.895Z,-1.56
2023-04-03T20:43:29.600Z,-1.57
2023-04-03T20:45:57.356Z,-1.58
2023-04-03T20:48:25.100Z,-1.61
2023-04-03T20:50:52.963Z,-1.61
2023-04-03T20:53:22.039Z,-1.65
2023-04-03T20:55:55.900Z,-1.71
2023-04-03T20:58:25.072Z,-1.73
2023-04-03T21:00:52.784Z,-1.82
2023-04-03T21:03:20.683Z,-1.85
2023-04-03T21:05:48.425Z,-1.92
2023-04-03T21:08:36.084Z,-1.98
2023-04-03T21:11:23.702Z,-2.01
2023-04-03T21:14:10.016Z,-2.08
2023-04-03T21:16:38.721Z,-2.11
2023-04-03T21:19:10.748Z,-2.13
2023-04-03T21:21:38.753Z,-2.15
2023-04-03T21:24:10.169Z,-2.26
2023-04-03T21:26:39.340Z,-2.24
2023-04-03T21:29:07.715Z,-2.28
2023-04-03T21:31:52.944Z,-2.28
2023-04-03T21:34:23.520Z,-2.28
2023-04-03T21:36:51.784Z,-2.51
2023-04-03T21:39:19.857Z,-2.64
2023-04-03T21:41:47.504Z,-2.60
2023-04-03T21:44:15.128Z,-2.59
2023-04-03T21:46:43.125Z,-2.57
2023-04-03T21:49:10.897Z,-2.54
2023-04-03T21:51:40.014Z,-2.61
2023-04-03T21:54:07.718Z,-2.62
2023-04-03T21:56:35.324Z,-2.67
2023-04-03T21:59:03.569Z,-2.69
2023-04-03T22:01:32.493Z,-2.72
2023-04-03T22:04:01.840Z,-2.72
2023-04-03T22:06:29.955Z,-2.72
2023-04-03T22:08:59.015Z,-2.78
2023-04-03T22:11:27.189Z,-2.85
2023-04-03T22:13:56.040Z,-2.91
2023-04-03T22:16:24.318Z,-2.94
2023-04-03T22:18:52.968Z,-2.92
2023-04-03T22:21:21.459Z,-2.89
2023-04-03T22:23:49.246Z,-2.93
2023-04-03T22:26:18.393Z,-2.99
2023-04-03T22:28:46.738Z,-3.02
2023-04-03T22:31:14.983Z,-3.03
2023-04-03T22:33:43.314Z,-3.04
2023-04-03T22:36:11.857Z,-3.09
2023-04-03T22:38:40.312Z,-3.04
2023-04-03T22:41:08.875Z,-3.06
2023-04-03T22:43:38.422Z,-3.07
2023-04-03T22:46:06.885Z,-3.14
2023-04-03T22:48:34.622Z,-3.23
2023-04-03T22:51:02.312Z,-3.23
2023-04-03T22:53:30.046Z,-3.19
2023-04-03T22:55:58.113Z,-3.17
2023-04-03T22:58:27.648Z,-3.18
2023-04-03T23:00:57.443Z,-3.20
2023-04-03T23:03:25.567Z,-3.20
2023-04-03T23:05:54.236Z,-3.21
2023-04-03T23:08:21.897Z,-3.20
2023-04-03T23:10:49.575Z,-3.19
2023-04-03T23:13:17.222Z,-3.22
2023-04-03T23:15:44.937Z,-3.26
2023-04-03T23:18:13.967Z,-3.28
2023-04-03T23:20:41.914Z,-3.30
2023-04-03T23:23:10.700Z,-3.35
2023-04-03T23:25:38.652Z,-3.37
2023-04-03T23:28:06.841Z,-3.38
2023-04-03T23:30:34.588Z,-3.42
2023-04-03T23:33:02.335Z,-3.46
2023-04-03T23:35:32.112Z,-3.58
2023-04-03T23:37:59.832Z,-3.63
2023-04-03T23:40:28.095Z,-3.72
2023-04-03T23:42:56.083Z,-3.72
2023-04-03T23:45:23.774Z,-3.69
2023-04-03T23:47:51.486Z,-3.68
2023-04-03T23:50:19.263Z,-3.69
2023-04-03T23:52:48.580Z,-3.74
2023-04-03T23:55:16.341Z,-3.78
2023-04-03T23:57:44.065Z,-3.85
